Terminal Aerodrome Forecast
Issued by NWS Sioux Falls, SD

Home | Current Version | Previous Version | Graphics & Text | Print | Product List | Glossary Off
Versions: 1 2 3 4 5 6 7 8 9 10 11 12 13 14 15 16 17 18 19

000
FTUS43 KFSD 221700
TAFHON
TAF
KHON 221720Z 2218/2318 04005KT P6SM SCT035 BKN100
     FM230500 09007KT P6SM BKN035
     FM230800 07009KT 5SM -TSRA SCT015 OVC035CB
      TEMPO 2309/2313 2SM TSRA BR BKN015CB
     FM231400 07009KT P6SM VCTS BKN025CB=

USA.gov is the U.S. government's official web portal to all federal, state and local government web resources and services.